sensor_id;sensor_type;location;lat;lon;timestamp;pressure;altitude;pressure_sealevel;temperature
20736;BMP180;10528;52.124;5.196;2022-10-31T00:01:22;101967.00;;;19.30
20736;BMP180;10528;52.124;5.196;2022-10-31T00:03:49;101968.00;;;19.30
20736;BMP180;10528;52.124;5.196;2022-10-31T00:06:16;101968.00;;;19.30
20736;BMP180;10528;52.124;5.196;2022-10-31T00:08:55;101964.00;;;19.30
20736;BMP180;10528;52.124;5.196;2022-10-31T00:11:23;101971.00;;;19.30
20736;BMP180;10528;52.124;5.196;2022-10-31T00:13:51;101969.00;;;19.30
20736;BMP180;10528;52.124;5.196;2022-10-31T00:16:23;101963.00;;;19.30
20736;BMP180;10528;52.124;5.196;2022-10-31T00:18:58;101963.00;;;19.30
20736;BMP180;10528;52.124;5.196;2022-10-31T00:21:26;101969.00;;;19.30
20736;BMP180;10528;52.124;5.196;2022-10-31T00:23:53;101968.00;;;19.30
20736;BMP180;10528;52.124;5.196;2022-10-31T00:26:20;101971.00;;;19.30
20736;BMP180;10528;52.124;5.196;2022-10-31T00:28:48;101962.00;;;19.20
20736;BMP180;10528;52.124;5.196;2022-10-31T00:31:15;101973.00;;;19.20
20736;BMP180;10528;52.124;5.196;2022-10-31T00:33:43;101978.00;;;19.30
20736;BMP180;10528;52.124;5.196;2022-10-31T00:36:17;101973.00;;;19.20
20736;BMP180;10528;52.124;5.196;2022-10-31T00:38:45;101976.00;;;19.20
20736;BMP180;10528;52.124;5.196;2022-10-31T00:41:15;101972.00;;;19.20
20736;BMP180;10528;52.124;5.196;2022-10-31T00:43:43;101977.00;;;19.20
20736;BMP180;10528;52.124;5.196;2022-10-31T00:46:12;101968.00;;;19.20
20736;BMP180;10528;52.124;5.196;2022-10-31T00:48:40;101971.00;;;19.20
20736;BMP180;10528;52.124;5.196;2022-10-31T00:51:08;101982.00;;;19.20
20736;BMP180;10528;52.124;5.196;2022-10-31T00:53:35;101981.00;;;19.20
20736;BMP180;10528;52.124;5.196;2022-10-31T00:56:03;101984.00;;;19.20
20736;BMP180;10528;52.124;5.196;2022-10-31T00:58:30;101986.00;;;19.20
20736;BMP180;10528;52.124;5.196;2022-10-31T01:00:56;101986.00;;;19.20
20736;BMP180;10528;52.124;5.196;2022-10-31T01:03:29;101988.00;;;19.20
20736;BMP180;10528;52.124;5.196;2022-10-31T01:06:02;101983.00;;;19.10
20736;BMP180;10528;52.124;5.196;2022-10-31T01:08:32;101981.00;;;19.10
20736;BMP180;10528;52.124;5.196;2022-10-31T01:13:34;101974.00;;;19.10
20736;BMP180;10528;52.124;5.196;2022-10-31T01:16:03;101976.00;;;19.00
20736;BMP180;10528;52.124;5.196;2022-10-31T01:18:33;101968.00;;;19.00
20736;BMP180;10528;52.124;5.196;2022-10-31T01:21:13;101961.00;;;19.00
20736;BMP180;10528;52.124;5.196;2022-10-31T01:23:40;101951.00;;;19.00
20736;BMP180;10528;52.124;5.196;2022-10-31T01:28:54;101951.00;;;18.90
20736;BMP180;10528;52.124;5.196;2022-10-31T01:31:26;101946.00;;;18.90
20736;BMP180;10528;52.124;5.196;2022-10-31T01:33:54;101941.00;;;18.90
20736;BMP180;10528;52.124;5.196;2022-10-31T01:36:30;101946.00;;;18.80
20736;BMP180;10528;52.124;5.196;2022-10-31T01:39:05;101947.00;;;18.80
20736;BMP180;10528;52.124;5.196;2022-10-31T01:41:37;101947.00;;;18.80
20736;BMP180;10528;52.124;5.196;2022-10-31T01:49:44;101935.00;;;18.70
20736;BMP180;10528;52.124;5.196;2022-10-31T01:52:35;101937.00;;;18.60
20736;BMP180;10528;52.124;5.196;2022-10-31T01:55:21;101938.00;;;18.60
20736;BMP180;10528;52.124;5.196;2022-10-31T01:58:02;101939.00;;;18.60
20736;BMP180;10528;52.124;5.196;2022-10-31T02:00:31;101934.00;;;18.50
20736;BMP180;10528;52.124;5.196;2022-10-31T02:02:58;101931.00;;;18.50
20736;BMP180;10528;52.124;5.196;2022-10-31T02:05:29;101930.00;;;18.50
20736;BMP180;10528;52.124;5.196;2022-10-31T02:08:20;101939.00;;;18.40
20736;BMP180;10528;52.124;5.196;2022-10-31T02:10:50;101935.00;;;18.40
20736;BMP180;10528;52.124;5.196;2022-10-31T02:13:18;101939.00;;;18.40
20736;BMP180;10528;52.124;5.196;2022-10-31T02:15:53;101938.00;;;18.30
20736;BMP180;10528;52.124;5.196;2022-10-31T02:18:22;101929.00;;;18.30
20736;BMP180;10528;52.124;5.196;2022-10-31T02:27:32;101934.00;;;18.20
20736;BMP180;10528;52.124;5.196;2022-10-31T02:30:23;101929.00;;;18.10
20736;BMP180;10528;52.124;5.196;2022-10-31T02:33:19;101937.00;;;18.10
20736;BMP180;10528;52.124;5.196;2022-10-31T02:39:34;101951.00;;;18.00
20736;BMP180;10528;52.124;5.196;2022-10-31T02:42:33;101942.00;;;18.00
20736;BMP180;10528;52.124;5.196;2022-10-31T02:45:13;101940.00;;;17.90
20736;BMP180;10528;52.124;5.196;2022-10-31T02:47:42;101946.00;;;17.90
20736;BMP180;10528;52.124;5.196;2022-10-31T02:50:32;101936.00;;;17.90
20736;BMP180;10528;52.124;5.196;2022-10-31T02:53:00;101943.00;;;17.90
20736;BMP180;10528;52.124;5.196;2022-10-31T02:58:08;101942.00;;;17.80
20736;BMP180;10528;52.124;5.196;2022-10-31T03:04:04;101940.00;;;17.70
20736;BMP180;10528;52.124;5.196;2022-10-31T03:09:59;101936.00;;;17.70
20736;BMP180;10528;52.124;5.196;2022-10-31T03:15:29;101950.00;;;17.60
20736;BMP180;10528;52.124;5.196;2022-10-31T03:18:34;101943.00;;;17.60
20736;BMP180;10528;52.124;5.196;2022-10-31T03:21:21;101937.00;;;17.50
20736;BMP180;10528;52.124;5.196;2022-10-31T03:23:53;101941.00;;;17.50
20736;BMP180;10528;52.124;5.196;2022-10-31T03:26:22;101941.00;;;17.50
20736;BMP180;10528;52.124;5.196;2022-10-31T03:28:58;101946.00;;;17.50
20736;BMP180;10528;52.124;5.196;2022-10-31T03:31:34;101933.00;;;17.50
20736;BMP180;10528;52.124;5.196;2022-10-31T03:34:07;101943.00;;;17.40
20736;BMP180;10528;52.124;5.196;2022-10-31T03:36:37;101945.00;;;17.40
20736;BMP180;10528;52.124;5.196;2022-10-31T03:39:09;101934.00;;;17.40
20736;BMP180;10528;52.124;5.196;2022-10-31T03:41:44;101940.00;;;17.40
20736;BMP180;10528;52.124;5.196;2022-10-31T03:44:17;101943.00;;;17.30
20736;BMP180;10528;52.124;5.196;2022-10-31T03:46:52;101939.00;;;17.30
20736;BMP180;10528;52.124;5.196;2022-10-31T03:49:21;101950.00;;;17.30
20736;BMP180;10528;52.124;5.196;2022-10-31T03:52:03;101943.00;;;17.30
20736;BMP180;10528;52.124;5.196;2022-10-31T03:54:42;101947.00;;;17.30
20736;BMP180;10528;52.124;5.196;2022-10-31T03:57:42;101948.00;;;17.20
20736;BMP180;10528;52.124;5.196;2022-10-31T04:00:13;101936.00;;;17.20
20736;BMP180;10528;52.124;5.196;2022-10-31T04:03:15;101943.00;;;17.20
20736;BMP180;10528;52.124;5.196;2022-10-31T04:05:46;101950.00;;;17.20
20736;BMP180;10528;52.124;5.196;2022-10-31T04:08:20;101938.00;;;17.10
20736;BMP180;10528;52.124;5.196;2022-10-31T04:10:51;101946.00;;;17.10
20736;BMP180;10528;52.124;5.196;2022-10-31T04:13:29;101942.00;;;17.10
20736;BMP180;10528;52.124;5.196;2022-10-31T04:16:02;101939.00;;;17.10
20736;BMP180;10528;52.124;5.196;2022-10-31T04:18:29;101941.00;;;17.10
20736;BMP180;10528;52.124;5.196;2022-10-31T04:21:03;101944.00;;;17.00
20736;BMP180;10528;52.124;5.196;2022-10-31T04:23:32;101931.00;;;17.00
20736;BMP180;10528;52.124;5.196;2022-10-31T04:26:02;101929.00;;;17.00
20736;BMP180;10528;52.124;5.196;2022-10-31T04:28:29;101929.00;;;17.00
20736;BMP180;10528;52.124;5.196;2022-10-31T04:30:56;101930.00;;;17.00
20736;BMP180;10528;52.124;5.196;2022-10-31T04:33:23;101938.00;;;17.00
20736;BMP180;10528;52.124;5.196;2022-10-31T04:35:50;101935.00;;;17.00
20736;BMP180;10528;52.124;5.196;2022-10-31T04:38:17;101933.00;;;16.90
20736;BMP180;10528;52.124;5.196;2022-10-31T04:40:45;101921.00;;;16.90
20736;BMP180;10528;52.124;5.196;2022-10-31T04:43:30;101928.00;;;16.90
20736;BMP180;10528;52.124;5.196;2022-10-31T04:45:59;101924.00;;;16.90
20736;BMP180;10528;52.124;5.196;2022-10-31T04:48:26;101933.00;;;16.90
20736;BMP180;10528;52.124;5.196;2022-10-31T04:50:53;101928.00;;;16.90
20736;BMP180;10528;52.124;5.196;2022-10-31T04:53:24;101935.00;;;16.80
20736;BMP180;10528;52.124;5.196;2022-10-31T04:56:11;101937.00;;;16.80
20736;BMP180;10528;52.124;5.196;2022-10-31T04:58:42;101936.00;;;16.80
20736;BMP180;10528;52.124;5.196;2022-10-31T05:01:09;101931.00;;;16.80
20736;BMP180;10528;52.124;5.196;2022-10-31T05:03:36;101928.00;;;16.80
20736;BMP180;10528;52.124;5.196;2022-10-31T05:06:06;101934.00;;;16.70
20736;BMP180;10528;52.124;5.196;2022-10-31T05:08:35;101929.00;;;16.70
20736;BMP180;10528;52.124;5.196;2022-10-31T05:11:05;101930.00;;;16.70
20736;BMP180;10528;52.124;5.196;2022-10-31T05:13:32;101932.00;;;16.70
20736;BMP180;10528;52.124;5.196;2022-10-31T05:16:22;101921.00;;;16.70
20736;BMP180;10528;52.124;5.196;2022-10-31T05:19:24;101928.00;;;16.60
20736;BMP180;10528;52.124;5.196;2022-10-31T05:22:20;101925.00;;;16.60
20736;BMP180;10528;52.124;5.196;2022-10-31T05:24:46;101930.00;;;16.60
20736;BMP180;10528;52.124;5.196;2022-10-31T05:27:13;101923.00;;;16.60
20736;BMP180;10528;52.124;5.196;2022-10-31T05:29:41;101926.00;;;16.60
20736;BMP180;10528;52.124;5.196;2022-10-31T05:32:08;101919.00;;;16.60
20736;BMP180;10528;52.124;5.196;2022-10-31T05:34:53;101909.00;;;16.50
20736;BMP180;10528;52.124;5.196;2022-10-31T05:37:52;101915.00;;;16.50
20736;BMP180;10528;52.124;5.196;2022-10-31T05:40:21;101917.00;;;16.50
20736;BMP180;10528;52.124;5.196;2022-10-31T05:42:52;101915.00;;;16.50
20736;BMP180;10528;52.124;5.196;2022-10-31T05:45:21;101919.00;;;16.50
20736;BMP180;10528;52.124;5.196;2022-10-31T05:47:59;101907.00;;;16.40
20736;BMP180;10528;52.124;5.196;2022-10-31T05:50:48;101903.00;;;16.40
20736;BMP180;10528;52.124;5.196;2022-10-31T05:53:16;101906.00;;;16.40
20736;BMP180;10528;52.124;5.196;2022-10-31T05:55:44;101906.00;;;16.40
20736;BMP180;10528;52.124;5.196;2022-10-31T05:58:13;101900.00;;;16.40
20736;BMP180;10528;52.124;5.196;2022-10-31T06:00:48;101903.00;;;16.30
20736;BMP180;10528;52.124;5.196;2022-10-31T06:03:15;101899.00;;;16.30
20736;BMP180;10528;52.124;5.196;2022-10-31T06:05:45;101895.00;;;16.30
20736;BMP180;10528;52.124;5.196;2022-10-31T06:08:20;101895.00;;;16.30
20736;BMP180;10528;52.124;5.196;2022-10-31T06:10:48;101889.00;;;16.30
20736;BMP180;10528;52.124;5.196;2022-10-31T06:13:20;101887.00;;;16.30
20736;BMP180;10528;52.124;5.196;2022-10-31T06:15:57;101899.00;;;16.30
20736;BMP180;10528;52.124;5.196;2022-10-31T06:18:29;101896.00;;;16.20
20736;BMP180;10528;52.124;5.196;2022-10-31T06:20:56;101890.00;;;16.20
20736;BMP180;10528;52.124;5.196;2022-10-31T06:23:23;101900.00;;;16.20
20736;BMP180;10528;52.124;5.196;2022-10-31T06:25:58;101900.00;;;16.20
20736;BMP180;10528;52.124;5.196;2022-10-31T06:28:24;101910.00;;;16.20
20736;BMP180;10528;52.124;5.196;2022-10-31T06:31:00;101894.00;;;16.10
20736;BMP180;10528;52.124;5.196;2022-10-31T06:33:30;101902.00;;;16.10
20736;BMP180;10528;52.124;5.196;2022-10-31T06:36:00;101903.00;;;16.10
20736;BMP180;10528;52.124;5.196;2022-10-31T06:38:28;101908.00;;;16.10
20736;BMP180;10528;52.124;5.196;2022-10-31T06:40:56;101903.00;;;16.10
20736;BMP180;10528;52.124;5.196;2022-10-31T06:43:27;101912.00;;;16.10
20736;BMP180;10528;52.124;5.196;2022-10-31T06:46:15;101906.00;;;16.10
20736;BMP180;10528;52.124;5.196;2022-10-31T06:48:49;101900.00;;;16.10
20736;BMP180;10528;52.124;5.196;2022-10-31T06:51:18;101911.00;;;16.10
20736;BMP180;10528;52.124;5.196;2022-10-31T06:53:48;101907.00;;;16.20
20736;BMP180;10528;52.124;5.196;2022-10-31T06:56:16;101906.00;;;16.20
20736;BMP180;10528;52.124;5.196;2022-10-31T06:58:52;101915.00;;;16.20
20736;BMP180;10528;52.124;5.196;2022-10-31T07:01:30;101906.00;;;16.20
20736;BMP180;10528;52.124;5.196;2022-10-31T07:03:58;101895.00;;;16.30
20736;BMP180;10528;52.124;5.196;2022-10-31T07:06:25;101900.00;;;16.30
20736;BMP180;10528;52.124;5.196;2022-10-31T07:08:53;101913.00;;;16.40
20736;BMP180;10528;52.124;5.196;2022-10-31T07:11:19;101913.00;;;16.40
20736;BMP180;10528;52.124;5.196;2022-10-31T07:13:47;101912.00;;;16.50
20736;BMP180;10528;52.124;5.196;2022-10-31T07:16:14;101902.00;;;16.50
20736;BMP180;10528;52.124;5.196;2022-10-31T07:18:42;101907.00;;;16.60
20736;BMP180;10528;52.124;5.196;2022-10-31T07:21:11;101911.00;;;16.60
20736;BMP180;10528;52.124;5.196;2022-10-31T07:23:38;101904.00;;;16.70
20736;BMP180;10528;52.124;5.196;2022-10-31T07:26:25;101922.00;;;16.80
20736;BMP180;10528;52.124;5.196;2022-10-31T07:28:54;101925.00;;;16.80
20736;BMP180;10528;52.124;5.196;2022-10-31T07:31:23;101922.00;;;16.80
20736;BMP180;10528;52.124;5.196;2022-10-31T07:33:53;101926.00;;;16.90
20736;BMP180;10528;52.124;5.196;2022-10-31T07:36:39;101916.00;;;17.00
20736;BMP180;10528;52.124;5.196;2022-10-31T07:39:06;101917.00;;;17.00
20736;BMP180;10528;52.124;5.196;2022-10-31T07:41:34;101922.00;;;17.00
20736;BMP180;10528;52.124;5.196;2022-10-31T07:44:01;101923.00;;;17.10
20736;BMP180;10528;52.124;5.196;2022-10-31T07:46:51;101922.00;;;17.10
20736;BMP180;10528;52.124;5.196;2022-10-31T07:49:41;101913.00;;;17.10
20736;BMP180;10528;52.124;5.196;2022-10-31T07:52:26;101935.00;;;17.20
20736;BMP180;10528;52.124;5.196;2022-10-31T07:55:18;101927.00;;;17.20
20736;BMP180;10528;52.124;5.196;2022-10-31T07:58:05;101933.00;;;17.20
20736;BMP180;10528;52.124;5.196;2022-10-31T08:00:35;101941.00;;;17.30
20736;BMP180;10528;52.124;5.196;2022-10-31T08:03:15;101939.00;;;17.30
20736;BMP180;10528;52.124;5.196;2022-10-31T08:06:06;101936.00;;;17.40
20736;BMP180;10528;52.124;5.196;2022-10-31T08:08:54;101942.00;;;17.40
20736;BMP180;10528;52.124;5.196;2022-10-31T08:11:21;101947.00;;;17.50
20736;BMP180;10528;52.124;5.196;2022-10-31T08:13:48;101946.00;;;17.50
20736;BMP180;10528;52.124;5.196;2022-10-31T08:16:15;101948.00;;;17.60
20736;BMP180;10528;52.124;5.196;2022-10-31T08:18:51;101944.00;;;17.70
20736;BMP180;10528;52.124;5.196;2022-10-31T08:21:18;101948.00;;;17.70
20736;BMP180;10528;52.124;5.196;2022-10-31T08:23:47;101943.00;;;17.80
20736;BMP180;10528;52.124;5.196;2022-10-31T08:26:14;101934.00;;;17.90
20736;BMP180;10528;52.124;5.196;2022-10-31T08:28:42;101933.00;;;17.90
20736;BMP180;10528;52.124;5.196;2022-10-31T08:31:09;101934.00;;;18.00
20736;BMP180;10528;52.124;5.196;2022-10-31T08:33:39;101939.00;;;18.00
20736;BMP180;10528;52.124;5.196;2022-10-31T08:36:12;101927.00;;;18.10
20736;BMP180;10528;52.124;5.196;2022-10-31T08:38:57;101938.00;;;18.10
20736;BMP180;10528;52.124;5.196;2022-10-31T08:41:29;101942.00;;;18.20
20736;BMP180;10528;52.124;5.196;2022-10-31T08:43:57;101939.00;;;18.20
20736;BMP180;10528;52.124;5.196;2022-10-31T08:46:24;101932.00;;;18.30
20736;BMP180;10528;52.124;5.196;2022-10-31T08:48:52;101932.00;;;18.40
20736;BMP180;10528;52.124;5.196;2022-10-31T08:51:19;101938.00;;;18.40
20736;BMP180;10528;52.124;5.196;2022-10-31T08:53:50;101930.00;;;18.50
20736;BMP180;10528;52.124;5.196;2022-10-31T08:56:22;101910.00;;;18.50
20736;BMP180;10528;52.124;5.196;2022-10-31T08:58:49;101914.00;;;18.50
20736;BMP180;10528;52.124;5.196;2022-10-31T09:01:22;101907.00;;;18.60
20736;BMP180;10528;52.124;5.196;2022-10-31T09:03:50;101908.00;;;18.60
20736;BMP180;10528;52.124;5.196;2022-10-31T09:06:17;101906.00;;;18.60
20736;BMP180;10528;52.124;5.196;2022-10-31T09:08:47;101908.00;;;18.70
20736;BMP180;10528;52.124;5.196;2022-10-31T09:11:14;101908.00;;;18.70
20736;BMP180;10528;52.124;5.196;2022-10-31T09:13:59;101903.00;;;18.70
20736;BMP180;10528;52.124;5.196;2022-10-31T09:16:38;101887.00;;;18.80
20736;BMP180;10528;52.124;5.196;2022-10-31T09:19:09;101889.00;;;18.90
20736;BMP180;10528;52.124;5.196;2022-10-31T09:21:37;101880.00;;;18.90
20736;BMP180;10528;52.124;5.196;2022-10-31T09:24:04;101876.00;;;19.00
20736;BMP180;10528;52.124;5.196;2022-10-31T09:26:33;101875.00;;;19.10
20736;BMP180;10528;52.124;5.196;2022-10-31T09:29:23;101880.00;;;19.20
20736;BMP180;10528;52.124;5.196;2022-10-31T09:31:56;101871.00;;;19.30
20736;BMP180;10528;52.124;5.196;2022-10-31T09:34:25;101876.00;;;19.30
20736;BMP180;10528;52.124;5.196;2022-10-31T09:37:02;101862.00;;;19.40
20736;BMP180;10528;52.124;5.196;2022-10-31T09:39:29;101884.00;;;19.50
20736;BMP180;10528;52.124;5.196;2022-10-31T09:51:34;101883.00;;;19.70
20736;BMP180;10528;52.124;5.196;2022-10-31T09:54:37;101880.00;;;19.80
20736;BMP180;10528;52.124;5.196;2022-10-31T09:57:14;101863.00;;;19.80
20736;BMP180;10528;52.124;5.196;2022-10-31T09:59:47;101859.00;;;19.90
20736;BMP180;10528;52.124;5.196;2022-10-31T10:02:37;101845.00;;;19.90
20736;BMP180;10528;52.124;5.196;2022-10-31T10:05:11;101862.00;;;19.90
20736;BMP180;10528;52.124;5.196;2022-10-31T10:08:18;101848.00;;;19.90
20736;BMP180;10528;52.124;5.196;2022-10-31T10:14:47;101848.00;;;20.00
20736;BMP180;10528;52.124;5.196;2022-10-31T10:17:40;101848.00;;;20.00
20736;BMP180;10528;52.124;5.196;2022-10-31T10:21:02;101835.00;;;20.00
20736;BMP180;10528;52.124;5.196;2022-10-31T10:28:44;101833.00;;;20.10
20736;BMP180;10528;52.124;5.196;2022-10-31T10:31:20;101838.00;;;20.20
20736;BMP180;10528;52.124;5.196;2022-10-31T10:36:48;101832.00;;;20.20
20736;BMP180;10528;52.124;5.196;2022-10-31T10:39:33;101834.00;;;20.30
20736;BMP180;10528;52.124;5.196;2022-10-31T10:42:12;101833.00;;;20.30
20736;BMP180;10528;52.124;5.196;2022-10-31T10:44:59;101831.00;;;20.40
20736;BMP180;10528;52.124;5.196;2022-10-31T10:47:57;101814.00;;;20.40
20736;BMP180;10528;52.124;5.196;2022-10-31T10:50:36;101799.00;;;20.40
20736;BMP180;10528;52.124;5.196;2022-10-31T10:53:42;101782.00;;;20.40
20736;BMP180;10528;52.124;5.196;2022-10-31T10:58:59;101763.00;;;20.50
20736;BMP180;10528;52.124;5.196;2022-10-31T11:01:25;101762.00;;;20.50
20736;BMP180;10528;52.124;5.196;2022-10-31T11:03:53;101761.00;;;20.50
20736;BMP180;10528;52.124;5.196;2022-10-31T11:06:23;101758.00;;;20.60
20736;BMP180;10528;52.124;5.196;2022-10-31T11:08:53;101747.00;;;20.60
20736;BMP180;10528;52.124;5.196;2022-10-31T11:11:27;101733.00;;;20.60
20736;BMP180;10528;52.124;5.196;2022-10-31T11:14:05;101732.00;;;20.60
20736;BMP180;10528;52.124;5.196;2022-10-31T11:16:46;101728.00;;;20.70
20736;BMP180;10528;52.124;5.196;2022-10-31T11:19:23;101748.00;;;20.70
20736;BMP180;10528;52.124;5.196;2022-10-31T11:21:52;101732.00;;;20.70
20736;BMP180;10528;52.124;5.196;2022-10-31T11:24:24;101749.00;;;20.80
20736;BMP180;10528;52.124;5.196;2022-10-31T11:27:13;101754.00;;;20.80
20736;BMP180;10528;52.124;5.196;2022-10-31T11:29:40;101750.00;;;20.90
20736;BMP180;10528;52.124;5.196;2022-10-31T11:32:27;101735.00;;;20.90
20736;BMP180;10528;52.124;5.196;2022-10-31T11:34:59;101736.00;;;21.00
20736;BMP180;10528;52.124;5.196;2022-10-31T11:37:31;101724.00;;;21.10
20736;BMP180;10528;52.124;5.196;2022-10-31T11:40:06;101720.00;;;21.10
20736;BMP180;10528;52.124;5.196;2022-10-31T11:42:40;101722.00;;;21.20
20736;BMP180;10528;52.124;5.196;2022-10-31T11:45:33;101717.00;;;21.20
20736;BMP180;10528;52.124;5.196;2022-10-31T11:48:02;101708.00;;;21.30
20736;BMP180;10528;52.124;5.196;2022-10-31T11:50:41;101708.00;;;21.40
20736;BMP180;10528;52.124;5.196;2022-10-31T11:53:17;101685.00;;;21.40
20736;BMP180;10528;52.124;5.196;2022-10-31T11:56:03;101669.00;;;21.40
20736;BMP180;10528;52.124;5.196;2022-10-31T11:58:30;101653.00;;;21.40
20736;BMP180;10528;52.124;5.196;2022-10-31T12:00:58;101652.00;;;21.40
20736;BMP180;10528;52.124;5.196;2022-10-31T12:03:51;101660.00;;;21.40
20736;BMP180;10528;52.124;5.196;2022-10-31T12:06:39;101655.00;;;21.40
20736;BMP180;10528;52.124;5.196;2022-10-31T12:09:30;101656.00;;;21.40
20736;BMP180;10528;52.124;5.196;2022-10-31T12:15:27;101642.00;;;21.40
20736;BMP180;10528;52.124;5.196;2022-10-31T12:45:44;101586.00;;;21.40
20736;BMP180;10528;52.124;5.196;2022-10-31T12:56:47;101564.00;;;21.50
20736;BMP180;10528;52.124;5.196;2022-10-31T12:59:44;101542.00;;;21.50
20736;BMP180;10528;52.124;5.196;2022-10-31T13:02:47;101545.00;;;21.50
20736;BMP180;10528;52.124;5.196;2022-10-31T13:05:27;101548.00;;;21.60
20736;BMP180;10528;52.124;5.196;2022-10-31T13:08:28;101524.00;;;21.60
20736;BMP180;10528;52.124;5.196;2022-10-31T13:11:08;101525.00;;;21.60
20736;BMP180;10528;52.124;5.196;2022-10-31T13:13:54;101509.00;;;21.60
20736;BMP180;10528;52.124;5.196;2022-10-31T13:16:30;101502.00;;;21.60
20736;BMP180;10528;52.124;5.196;2022-10-31T13:19:22;101510.00;;;21.60
20736;BMP180;10528;52.124;5.196;2022-10-31T13:22:07;101501.00;;;21.60
20736;BMP180;10528;52.124;5.196;2022-10-31T13:27:48;101494.00;;;21.60
20736;BMP180;10528;52.124;5.196;2022-10-31T13:30:20;101482.00;;;21.60
20736;BMP180;10528;52.124;5.196;2022-10-31T13:33:12;101484.00;;;21.60
20736;BMP180;10528;52.124;5.196;2022-10-31T13:38:56;101473.00;;;21.60
20736;BMP180;10528;52.124;5.196;2022-10-31T13:44:30;101455.00;;;21.60
20736;BMP180;10528;52.124;5.196;2022-10-31T13:47:25;101454.00;;;21.60
20736;BMP180;10528;52.124;5.196;2022-10-31T13:50:23;101448.00;;;21.60
20736;BMP180;10528;52.124;5.196;2022-10-31T13:52:50;101441.00;;;21.60
20736;BMP180;10528;52.124;5.196;2022-10-31T13:58:28;101431.00;;;21.60
20736;BMP180;10528;52.124;5.196;2022-10-31T14:01:16;101423.00;;;21.60
20736;BMP180;10528;52.124;5.196;2022-10-31T14:03:59;101420.00;;;21.60
20736;BMP180;10528;52.124;5.196;2022-10-31T14:12:41;101407.00;;;21.60
20736;BMP180;10528;52.124;5.196;2022-10-31T14:15:26;101410.00;;;21.60
20736;BMP180;10528;52.124;5.196;2022-10-31T14:18:01;101395.00;;;21.60
20736;BMP180;10528;52.124;5.196;2022-10-31T14:20:34;101393.00;;;21.60
20736;BMP180;10528;52.124;5.196;2022-10-31T14:29:20;101380.00;;;21.60
20736;BMP180;10528;52.124;5.196;2022-10-31T14:34:58;101377.00;;;21.60
20736;BMP180;10528;52.124;5.196;2022-10-31T14:40:27;101366.00;;;21.60
20736;BMP180;10528;52.124;5.196;2022-10-31T14:43:39;101350.00;;;21.60
20736;BMP180;10528;52.124;5.196;2022-10-31T14:50:02;101355.00;;;21.50
20736;BMP180;10528;52.124;5.196;2022-10-31T14:52:32;101347.00;;;21.60
20736;BMP180;10528;52.124;5.196;2022-10-31T14:55:05;101358.00;;;21.60
20736;BMP180;10528;52.124;5.196;2022-10-31T14:57:37;101358.00;;;21.60
20736;BMP180;10528;52.124;5.196;2022-10-31T15:00:19;101343.00;;;21.60
20736;BMP180;10528;52.124;5.196;2022-10-31T15:03:15;101336.00;;;21.60
20736;BMP180;10528;52.124;5.196;2022-10-31T15:05:50;101318.00;;;21.60
20736;BMP180;10528;52.124;5.196;2022-10-31T15:08:34;101318.00;;;21.60
20736;BMP180;10528;52.124;5.196;2022-10-31T15:11:14;101318.00;;;21.60
20736;BMP180;10528;52.124;5.196;2022-10-31T15:13:45;101306.00;;;21.60
20736;BMP180;10528;52.124;5.196;2022-10-31T15:16:15;101308.00;;;21.60
20736;BMP180;10528;52.124;5.196;2022-10-31T15:19:16;101306.00;;;21.60
20736;BMP180;10528;52.124;5.196;2022-10-31T15:21:45;101305.00;;;21.60
20736;BMP180;10528;52.124;5.196;2022-10-31T15:24:15;101303.00;;;21.60
20736;BMP180;10528;52.124;5.196;2022-10-31T15:26:50;101290.00;;;21.50
20736;BMP180;10528;52.124;5.196;2022-10-31T15:29:25;101287.00;;;21.50
20736;BMP180;10528;52.124;5.196;2022-10-31T15:31:56;101276.00;;;21.50
20736;BMP180;10528;52.124;5.196;2022-10-31T15:34:39;101271.00;;;21.40
20736;BMP180;10528;52.124;5.196;2022-10-31T15:37:16;101266.00;;;21.40
20736;BMP180;10528;52.124;5.196;2022-10-31T15:39:44;101258.00;;;21.40
20736;BMP180;10528;52.124;5.196;2022-10-31T15:42:22;101261.00;;;21.40
20736;BMP180;10528;52.124;5.196;2022-10-31T15:45:01;101250.00;;;21.30
20736;BMP180;10528;52.124;5.196;2022-10-31T15:47:31;101241.00;;;21.30
20736;BMP180;10528;52.124;5.196;2022-10-31T15:50:00;101230.00;;;21.30
20736;BMP180;10528;52.124;5.196;2022-10-31T15:52:43;101217.00;;;21.30
20736;BMP180;10528;52.124;5.196;2022-10-31T15:57:49;101237.00;;;21.20
20736;BMP180;10528;52.124;5.196;2022-10-31T16:00:27;101232.00;;;21.20
20736;BMP180;10528;52.124;5.196;2022-10-31T16:03:08;101224.00;;;21.20
20736;BMP180;10528;52.124;5.196;2022-10-31T16:05:46;101228.00;;;21.30
20736;BMP180;10528;52.124;5.196;2022-10-31T16:11:45;101213.00;;;21.30
20736;BMP180;10528;52.124;5.196;2022-10-31T16:14:17;101213.00;;;21.20
20736;BMP180;10528;52.124;5.196;2022-10-31T16:16:57;101211.00;;;21.20
20736;BMP180;10528;52.124;5.196;2022-10-31T16:19:32;101216.00;;;21.20
20736;BMP180;10528;52.124;5.196;2022-10-31T16:22:08;101211.00;;;21.30
20736;BMP180;10528;52.124;5.196;2022-10-31T16:25:10;101220.00;;;21.20
20736;BMP180;10528;52.124;5.196;2022-10-31T16:27:39;101211.00;;;21.30
20736;BMP180;10528;52.124;5.196;2022-10-31T16:30:58;101207.00;;;21.20
20736;BMP180;10528;52.124;5.196;2022-10-31T16:33:36;101202.00;;;21.20
20736;BMP180;10528;52.124;5.196;2022-10-31T16:36:33;101202.00;;;21.20
20736;BMP180;10528;52.124;5.196;2022-10-31T16:39:04;101203.00;;;21.20
20736;BMP180;10528;52.124;5.196;2022-10-31T16:41:39;101194.00;;;21.20
20736;BMP180;10528;52.124;5.196;2022-10-31T16:44:25;101202.00;;;21.20
20736;BMP180;10528;52.124;5.196;2022-10-31T16:47:15;101190.00;;;21.20
20736;BMP180;10528;52.124;5.196;2022-10-31T16:49:44;101180.00;;;21.20
20736;BMP180;10528;52.124;5.196;2022-10-31T16:52:12;101174.00;;;21.20
20736;BMP180;10528;52.124;5.196;2022-10-31T16:54:39;101172.00;;;21.10
20736;BMP180;10528;52.124;5.196;2022-10-31T16:57:13;101167.00;;;21.10
20736;BMP180;10528;52.124;5.196;2022-10-31T16:59:41;101172.00;;;21.10
20736;BMP180;10528;52.124;5.196;2022-10-31T17:02:16;101164.00;;;21.10